createdAt,value
2018-09-19T10:27:38.725Z,0
2018-09-19T10:30:12.910Z,6.2
2018-09-19T10:32:30.714Z,12.7
2018-09-19T10:33:12.950Z,12.2
2018-09-19T10:34:13.014Z,13.2
2018-09-19T10:35:13.130Z,13.3
2018-09-19T10:36:13.141Z,11.4
2018-09-19T10:37:13.593Z,11.5
2018-09-19T10:38:13.512Z,12.7
2018-09-19T10:39:13.533Z,11.3
2018-09-19T10:40:13.658Z,12.2
2018-09-19T10:41:13.539Z,11.9
2018-09-19T10:42:13.764Z,11.6
2018-09-19T10:43:13.733Z,12.6
2018-09-19T10:44:13.996Z,12
2018-09-19T10:45:32.746Z,12.6
2018-09-19T10:46:14.400Z,10.8
2018-09-19T10:47:14.055Z,11.1
2018-09-19T10:48:14.082Z,11.1
2018-09-19T10:49:14.260Z,13.1
2018-09-19T10:50:13.929Z,12.9
2018-09-19T10:51:13.922Z,13.6
2018-09-19T10:52:13.993Z,12.1
2018-09-19T10:53:32.045Z,12.8
2018-09-19T10:54:14.074Z,12
2018-09-19T10:55:14.067Z,13.8
2018-09-19T10:56:14.223Z,11.6
2018-09-19T10:57:14.254Z,12.5
2018-09-19T10:58:14.207Z,11
2018-09-19T10:59:14.506Z,12.3
2018-09-19T11:00:32.508Z,11
2018-09-19T11:01:14.506Z,12
2018-09-19T11:02:14.489Z,11.3
2018-09-19T11:03:32.621Z,14
2018-09-19T11:04:14.846Z,13.1
2018-09-19T11:05:14.866Z,13.2
2018-09-19T11:06:14.894Z,13.4
2018-09-19T11:07:32.930Z,14
2018-09-19T11:08:14.967Z,12.9
2018-09-19T11:09:15.003Z,13.5
2018-09-19T11:10:15.005Z,13.5
2018-09-19T11:11:15.073Z,12.8
2018-09-19T11:12:15.315Z,12.1
2018-09-19T11:13:15.128Z,12.8
2018-09-19T11:14:15.172Z,12.6
2018-09-19T11:15:15.238Z,13.4
2018-09-19T11:16:15.435Z,12.4
2018-09-19T11:17:15.293Z,13
2018-09-19T11:18:15.485Z,12.5
2018-09-19T11:19:15.430Z,12.2
2018-09-19T11:20:15.474Z,12.5
2018-09-19T11:21:15.693Z,12.9
2018-09-19T11:22:15.660Z,12
2018-09-19T11:23:15.670Z,10.8
2018-09-19T11:24:15.642Z,12.3
2018-09-19T11:25:15.999Z,13.9
2018-09-19T11:26:33.837Z,13.6
2018-09-19T11:27:15.942Z,13.1
2018-09-19T11:28:16.157Z,11.8
2018-09-19T11:29:16.290Z,11.7
2018-09-19T11:30:16.465Z,13.1
2018-09-19T11:31:34.244Z,11.2
2018-09-19T11:32:16.500Z,13.5
2018-09-19T11:33:16.530Z,11.6
2018-09-19T11:34:34.453Z,12.8
2018-09-19T11:35:16.609Z,11.9
2018-09-19T11:36:16.963Z,12.3
2018-09-19T11:37:35.724Z,10.6
2018-09-19T11:38:16.707Z,10.2
2018-09-19T11:39:16.885Z,10.4
2018-09-19T11:40:16.827Z,10.9
2018-09-19T11:41:16.927Z,10.7
2018-09-19T11:42:17.032Z,10.8
2018-09-19T11:43:17.125Z,10.7
2018-09-19T11:44:17.205Z,12.2
2018-09-19T11:45:17.332Z,11.5
2018-09-19T11:46:17.444Z,11.4
2018-09-19T11:47:17.820Z,10.8
2018-09-19T11:48:17.606Z,10.9
2018-09-19T11:49:17.857Z,11.7
2018-09-19T11:50:17.881Z,10.9
2018-09-19T11:52:18.004Z,12.2
2018-09-19T11:53:18.123Z,12.7
2018-09-19T11:54:17.961Z,12
2018-09-19T11:55:17.908Z,11.5
2018-09-19T11:56:18.190Z,12
2018-09-19T11:57:18.375Z,11.6
2018-09-19T11:58:36.168Z,11.3
2018-09-19T11:59:18.355Z,11.6
2018-09-19T12:00:18.574Z,12.2
2018-09-19T12:01:18.563Z,12.3
2018-09-19T12:02:18.795Z,12.4
2018-09-19T12:03:18.643Z,12.3
2018-09-19T12:04:18.774Z,11.6
2018-09-19T12:05:18.995Z,12.9
2018-09-19T12:06:18.843Z,11.3
2018-09-19T12:07:18.983Z,11.8
2018-09-19T12:08:19.116Z,13.1
2018-09-19T12:09:19.061Z,12.2
2018-09-19T12:10:19.084Z,12.2
2018-09-19T12:11:19.175Z,12
2018-09-19T12:12:19.316Z,13
2018-09-19T12:13:19.544Z,12.6
2018-09-19T12:14:20.256Z,12.7
2018-09-19T12:15:19.391Z,12
2018-09-19T12:16:37.439Z,11.5
2018-09-19T12:18:19.572Z,12.6
2018-09-19T12:19:19.633Z,12.3
2018-09-19T12:20:19.631Z,12.8
2018-09-19T12:21:19.639Z,11.4
2018-09-19T12:22:19.708Z,12.9
2018-09-19T12:23:19.797Z,11.5
2018-09-19T12:24:19.797Z,12
2018-09-19T12:25:19.839Z,10.7
2018-09-19T12:26:20.893Z,13
2018-09-19T12:27:20.045Z,12.6
2018-09-19T12:28:20.216Z,12.4
2018-09-19T12:29:20.091Z,13.2
2018-09-19T12:30:20.220Z,10.8
2018-09-19T12:31:20.376Z,11.9
2018-09-19T12:32:20.384Z,11.9
2018-09-19T12:33:20.640Z,11
2018-09-19T12:34:20.613Z,11.2
2018-09-19T12:35:20.449Z,11.5
2018-09-19T12:36:20.445Z,11.2
2018-09-19T12:37:20.445Z,9
2018-09-19T12:38:20.601Z,10.2
2018-09-19T12:39:38.644Z,10.8
2018-09-19T12:40:20.771Z,10
2018-09-19T12:41:38.789Z,10.5
2018-09-19T12:42:20.739Z,8.7
2018-09-19T12:43:20.993Z,9.5
2018-09-19T12:44:21.042Z,10.3
2018-09-19T12:45:39.061Z,9.9
2018-09-19T12:46:21.103Z,9.5
2018-09-19T12:47:21.328Z,10.6
2018-09-19T12:48:21.378Z,9
2018-09-19T12:49:21.438Z,8.1
2018-09-19T12:50:21.339Z,10.3
2018-09-19T12:51:39.289Z,8.8
2018-09-19T12:52:21.525Z,8.4
2018-09-19T12:53:21.640Z,8.8
2018-09-19T12:54:39.573Z,8.3
2018-09-19T12:55:39.626Z,8.9
2018-09-19T12:56:21.778Z,7.9
2018-09-19T12:57:21.936Z,9.2
2018-09-19T12:58:21.789Z,8.7
2018-09-19T12:59:21.955Z,8.1
2018-09-19T13:00:21.826Z,9.8
2018-09-19T13:01:21.887Z,8
2018-09-19T13:02:21.898Z,8.5
2018-09-19T13:03:39.934Z,7.5
2018-09-19T13:04:22.162Z,7.9
2018-09-19T13:05:22.425Z,6.6
2018-09-19T13:06:22.274Z,7.4
2018-09-19T13:07:22.455Z,5.5
2018-09-19T13:08:22.412Z,7.2
2018-09-19T13:09:22.487Z,6.3
2018-09-19T13:10:22.613Z,6.2
2018-09-19T13:11:22.857Z,6.1
2018-09-19T13:12:22.733Z,5.6
2018-09-19T13:13:22.794Z,5.8
2018-09-19T13:14:22.868Z,7.2
2018-09-19T13:15:22.902Z,7.3
2018-09-19T13:16:23.168Z,5.8
2018-09-19T13:17:23.076Z,6.7
2018-09-19T13:18:23.157Z,7.6
2018-09-19T13:19:23.338Z,7
2018-09-19T13:20:23.874Z,10
2018-09-19T13:21:41.269Z,6.7
2018-09-19T13:22:23.299Z,6.9
2018-09-19T13:23:23.448Z,5.7
2018-09-19T13:24:23.433Z,5.6
2018-09-19T13:25:23.726Z,12.8
2018-09-19T13:26:23.687Z,8.3
2018-09-19T13:27:23.963Z,8.5
2018-09-19T13:28:23.762Z,5.9
2018-09-19T13:29:23.915Z,6.7
2018-09-19T13:30:42.173Z,7
2018-09-19T13:31:42.002Z,7.3
2018-09-19T13:32:42.031Z,7.2
2018-09-19T13:33:42.035Z,6.7
2018-09-19T13:34:24.212Z,6.5
2018-09-19T13:35:24.253Z,7.6
2018-09-19T13:36:24.285Z,7.7
2018-09-19T13:37:24.579Z,7.1
2018-09-19T13:38:24.618Z,8.2
2018-09-19T13:39:24.597Z,10
2018-09-19T13:40:24.715Z,8.7
2018-09-19T13:41:23.816Z,6.8
2018-09-19T13:42:25.109Z,6.7
2018-09-19T13:43:25.183Z,6.8
2018-09-19T13:45:25.283Z,6.8
2018-09-19T13:46:25.290Z,7.3
2018-09-19T13:47:25.216Z,7.2
2018-09-19T13:48:25.273Z,7.1
2018-09-19T13:49:25.442Z,7
2018-09-19T13:50:25.461Z,6.2
2018-09-19T13:51:25.327Z,7.1
2018-09-19T13:52:43.296Z,6.5
2018-09-19T13:53:43.194Z,7.3
2018-09-19T13:54:25.386Z,5.9
2018-09-19T13:55:25.567Z,7.6
2018-09-19T13:56:25.548Z,6.4
2018-09-19T13:57:25.676Z,6.6
2018-09-19T13:58:25.787Z,7.1
2018-09-19T13:59:25.817Z,7.2
2018-09-19T14:00:26.883Z,6.5
2018-09-19T14:01:26.011Z,7
2018-09-19T14:02:26.365Z,6
2018-09-19T14:03:26.058Z,7.3
2018-09-19T14:04:26.185Z,6.1
2018-09-19T14:05:26.356Z,6.8
2018-09-19T14:06:26.242Z,6.3
2018-09-19T14:07:26.452Z,7.5
2018-09-19T14:08:44.226Z,8.1
2018-09-19T14:09:26.352Z,6.8
2018-09-19T14:10:26.645Z,6.3
2018-09-19T14:11:26.756Z,6.5
2018-09-19T14:12:27.074Z,7.2
2018-09-19T14:13:27.030Z,8.2
2018-09-19T14:14:26.969Z,7.4
2018-09-19T14:15:27.126Z,8.4
2018-09-19T14:16:44.970Z,6.6
2018-09-19T14:17:27.074Z,6.2
2018-09-19T14:18:27.175Z,6.9
2018-09-19T14:19:27.415Z,6.6
2018-09-19T14:20:27.475Z,6.8
2018-09-19T14:21:27.468Z,7.7
2018-09-19T14:22:27.721Z,7.1
2018-09-19T14:23:27.521Z,6.7
2018-09-19T14:24:27.761Z,7.1
2018-09-19T14:25:27.719Z,8.2
2018-09-19T14:26:27.919Z,7.2
2018-09-19T14:28:28.021Z,8.3
2018-09-19T14:29:28.066Z,7.5
2018-09-19T14:30:28.232Z,6.9
2018-09-19T14:31:28.192Z,8.3
2018-09-19T14:32:28.425Z,8.4
2018-09-19T14:33:28.283Z,8
2018-09-19T14:34:28.428Z,7.9
2018-09-19T14:35:28.612Z,7.5
2018-09-19T14:36:28.716Z,7.5
2018-09-19T14:37:28.600Z,9.9
2018-09-19T14:38:28.641Z,7.7
2018-09-19T14:39:28.695Z,6.7
2018-09-19T14:40:46.573Z,7.1
2018-09-19T14:41:28.784Z,7.1
2018-09-19T14:42:29.035Z,7.2
2018-09-19T14:46:09.755Z,8.8
2018-09-19T14:46:43.824Z,8
2018-09-19T14:49:06.788Z,7.5
2018-09-19T14:49:22.901Z,8
2018-09-19T14:51:46.264Z,7.5
2018-09-19T15:14:22.817Z,7.9
2018-09-19T15:14:38.812Z,7.1
2018-09-19T15:22:06.684Z,7.8
2018-09-19T15:22:22.807Z,8
2018-09-19T15:23:23.315Z,8
2018-09-19T15:24:23.243Z,7.5
2018-09-19T15:26:41.116Z,10.1
2018-09-19T15:27:40.846Z,6.4
2018-09-19T15:28:23.152Z,6.3
2018-09-19T15:29:23.227Z,6.8
2018-09-19T15:30:23.402Z,7.3
2018-09-19T15:31:23.366Z,7.1
2018-09-19T15:32:23.539Z,6.8
2018-09-19T15:33:23.383Z,7.2
2018-09-19T15:36:23.523Z,6.8
2018-09-19T15:37:23.661Z,7.2
2018-09-19T15:38:23.884Z,6
2018-09-19T15:39:23.748Z,6.3
2018-09-19T15:40:41.845Z,5.9
2018-09-19T15:41:24.175Z,6.3
2018-09-19T15:42:24.143Z,6.5
2018-09-19T15:43:24.121Z,5.9
2018-09-19T15:44:24.218Z,5.7
2018-09-19T15:45:24.155Z,7.2
2018-09-19T15:46:42.120Z,5.7
2018-09-19T15:47:24.306Z,5.8
2018-09-19T15:48:24.432Z,5.5
2018-09-19T15:49:42.335Z,5.9
2018-09-19T15:50:24.449Z,6
2018-09-19T15:51:42.540Z,5.4
2018-09-19T15:52:24.697Z,8.3
2018-09-19T15:53:24.767Z,6
2018-09-19T15:54:24.766Z,7.2
2018-09-19T15:57:05.621Z,5.3
2018-09-19T15:59:20.352Z,5.1
2018-09-19T16:00:36.402Z,5.8
2018-09-19T16:01:54.434Z,6.4
2018-09-19T16:03:54.324Z,5.6
2018-09-19T16:04:54.416Z,7.9
2018-09-19T16:05:36.717Z,7.2
2018-09-19T16:06:36.856Z,6.2
2018-09-19T16:07:36.978Z,5.3
2018-09-19T16:08:36.986Z,8.6
2018-09-19T16:09:55.057Z,5.4
2018-09-19T16:10:37.160Z,6.2
2018-09-19T16:11:55.195Z,6
2018-09-19T16:12:37.346Z,6.2
2018-09-19T16:13:37.397Z,6
2018-09-19T16:14:55.246Z,7.2
2018-09-19T16:15:56.446Z,5.8
2018-09-19T16:16:55.422Z,5.6
2018-09-19T16:17:37.802Z,6.4
2018-09-19T16:18:37.888Z,5.2
2018-09-19T16:25:42.883Z,5.2
2018-09-19T16:26:34.762Z,5.2
2018-09-19T16:27:34.990Z,6.7
2018-09-19T16:28:59.019Z,6.2
2018-09-19T16:30:16.933Z,5.8
2018-09-19T16:31:17.225Z,5.5
2018-09-19T16:31:59.348Z,6.7
2018-09-19T16:33:59.441Z,6.9
2018-09-19T16:34:59.476Z,8.3
2018-09-19T16:35:59.464Z,7.3
2018-09-19T16:37:17.426Z,11
2018-09-19T16:40:41.156Z,5.6
2018-09-19T16:41:33.122Z,8.9
2018-09-19T16:41:57.563Z,6.1
2018-09-19T16:43:33.220Z,6.3
2018-09-19T16:44:15.384Z,7.6
2018-09-19T16:45:33.515Z,5.8
2018-09-19T16:45:58.055Z,7.8
2018-09-19T16:48:38.427Z,6.2
2018-09-19T16:52:15.769Z,5.6
2018-09-19T17:20:33.336Z,5.5
2018-09-19T17:21:25.120Z,5.5
2018-09-19T17:21:49.432Z,6.1
2018-09-19T17:22:49.737Z,8.3
2018-09-19T17:24:07.564Z,8.1
2018-09-19T17:25:07.664Z,7.1
2018-09-19T17:25:50.043Z,8.2
2018-09-19T17:26:50.068Z,8.6
2018-09-19T17:27:50.018Z,7
2018-09-19T17:28:50.148Z,5.8
2018-09-19T17:30:08.345Z,7.6
2018-09-19T17:31:08.421Z,8.3
2018-09-19T17:32:08.386Z,7.8
2018-09-19T17:32:50.643Z,7.7
2018-09-19T17:34:08.609Z,8.7
2018-09-19T17:34:50.790Z,6.7
2018-09-19T17:36:08.662Z,7.6
2018-09-19T17:37:08.737Z,6.1
2018-09-19T17:37:51.135Z,6.7
2018-09-19T17:38:51.206Z,6.4
2018-09-19T17:40:09.145Z,6.7
2018-09-19T17:40:51.200Z,6.8
2018-09-19T17:42:09.404Z,6.9
2018-09-19T17:42:51.566Z,7.1
2018-09-19T17:43:51.564Z,8.5
2018-09-19T17:44:51.715Z,7.3
2018-09-19T17:45:51.867Z,7.5
2018-09-19T17:47:09.881Z,8.4
2018-09-19T17:48:52.123Z,10.5
2018-09-19T17:51:10.185Z,9.5
2018-09-19T17:52:52.264Z,8.8
2018-09-19T17:53:52.432Z,8.5
2018-09-19T17:54:52.403Z,7.8
2018-09-19T17:55:52.486Z,11.4
2018-09-19T17:56:52.526Z,13.4
2018-09-19T17:58:10.679Z,11.8
2018-09-19T17:58:52.568Z,12.9
2018-09-19T18:00:10.587Z,10.2
2018-09-19T18:01:10.864Z,9.4
2018-09-19T18:01:52.904Z,9.9
2018-09-19T18:02:52.798Z,11.4
2018-09-19T18:03:52.996Z,8.6
2018-09-19T18:04:53.060Z,10.1
2018-09-19T18:06:12.202Z,10.2
2018-09-19T18:06:53.138Z,9.9
2018-09-19T18:07:53.330Z,9.7
2018-09-19T18:09:11.283Z,8.1
2018-09-19T18:09:53.446Z,8.8
2018-09-19T18:10:53.525Z,12.3
2018-09-19T18:11:53.689Z,8.5
2018-09-19T18:12:53.668Z,9.5
2018-09-19T18:14:11.491Z,12.5
2018-09-19T18:15:11.597Z,9.5
2018-09-19T18:16:11.838Z,9.8
2018-09-19T18:17:11.784Z,9.8
2018-09-19T18:18:11.776Z,8.2
2018-09-19T18:18:54.018Z,10.4
2018-09-19T18:20:12.004Z,7.9
2018-09-19T18:20:54.118Z,10.6
2018-09-19T18:21:54.223Z,9.6
2018-09-19T18:23:12.169Z,8.3
2018-09-19T18:23:54.525Z,12
2018-09-19T18:24:54.711Z,10.8
2018-09-19T18:25:54.564Z,11.3
2018-09-19T18:26:54.658Z,8.8
2018-09-19T18:28:12.612Z,8.8
2018-09-19T18:28:55.005Z,13.2
2018-09-19T18:29:55.026Z,11.5
2018-09-19T18:30:55.058Z,11.1
2018-09-19T18:31:55.335Z,10.5
2018-09-19T18:35:35.939Z,13.4
2018-09-19T19:04:28.676Z,15.7
2018-09-19T19:06:10.851Z,9.9
2018-09-19T19:07:28.523Z,8.3
2018-09-19T19:08:10.713Z,9
2018-09-19T19:09:28.647Z,8.8
2018-09-19T19:10:46.612Z,8.7
2018-09-19T19:11:28.892Z,8.1
2018-09-19T19:12:11.043Z,9.7
2018-09-19T19:14:28.979Z,8
2018-09-19T19:15:29.102Z,8.5
2018-09-19T19:16:11.241Z,8.7
2018-09-19T19:17:11.403Z,9
2018-09-19T19:18:11.364Z,10.6
2018-09-19T19:19:29.414Z,9.3
2018-09-19T19:20:11.394Z,8.3
2018-09-19T19:21:47.314Z,10.3
2018-09-19T19:22:29.608Z,8.5
2018-09-19T19:23:29.865Z,9.1
2018-09-19T19:24:29.761Z,11.2
2018-09-19T19:25:30.002Z,12
2018-09-19T19:26:29.919Z,12.5
2018-09-19T19:27:30.076Z,10.7
2018-09-19T19:28:12.206Z,10.6
2018-09-19T19:29:12.184Z,10.1
2018-09-19T19:30:12.415Z,8.8
2018-09-19T19:31:48.113Z,12.7
2018-09-19T19:32:12.640Z,13.6
2018-09-19T19:36:30.809Z,10.5
2018-09-19T19:37:12.841Z,8.9
2018-09-19T19:38:30.712Z,7.8
2018-09-19T19:39:13.046Z,9.6
2018-09-19T19:40:12.936Z,9.3
2018-09-19T19:41:13.014Z,11.4
2018-09-19T19:42:13.248Z,9.6
2018-09-19T19:44:13.361Z,11
2018-09-19T19:45:13.395Z,9.6
2018-09-19T19:46:13.536Z,10.5
2018-09-19T19:47:13.839Z,10.1
2018-09-19T19:48:31.821Z,9.5
2018-09-19T19:49:31.775Z,9.1
2018-09-19T19:50:31.838Z,10.5
2018-09-19T19:51:31.920Z,10
2018-09-19T19:52:32.015Z,11.6
2018-09-19T19:53:32.433Z,8.3
2018-09-19T19:54:32.253Z,10
2018-09-19T19:55:32.119Z,10.2
2018-09-19T19:57:14.374Z,11.7
2018-09-19T19:59:14.737Z,10.8
2018-09-19T20:00:14.546Z,10.3
2018-09-19T20:01:14.916Z,10
2018-09-19T20:02:14.829Z,9.6
2018-09-19T20:03:32.830Z,8.4
2018-09-19T20:04:15.023Z,10.1
2018-09-19T20:05:33.081Z,10.1
2018-09-19T20:06:15.320Z,10.2
2018-09-19T20:07:33.384Z,9.2
2018-09-19T20:08:15.508Z,10
2018-09-19T20:09:33.511Z,8.1
2018-09-19T20:10:15.743Z,8.8
2018-09-19T20:11:33.553Z,9.6
2018-09-19T20:12:33.715Z,9.5
2018-09-19T20:13:15.954Z,8.9
2018-09-19T20:14:16.060Z,9.5
2018-09-19T20:15:33.915Z,8.7
2018-09-19T20:16:16.064Z,8.7
2018-09-19T20:17:34.139Z,8.8
2018-09-19T20:18:16.244Z,9.1
2018-09-19T20:19:16.287Z,10.8
2018-09-19T20:20:16.373Z,10.1
2018-09-19T20:22:34.370Z,9.5
2018-09-19T20:23:16.617Z,8.3
2018-09-19T20:24:34.543Z,9.8
2018-09-19T20:25:16.795Z,10.2
2018-09-19T20:26:35.094Z,10.9
2018-09-19T20:27:16.864Z,9.5
2018-09-19T20:28:34.934Z,9.3
2018-09-19T20:29:17.100Z,8.5
2018-09-19T20:30:35.161Z,11
2018-09-19T20:31:35.135Z,10.1
2018-09-19T20:32:53.031Z,9.6
2018-09-19T20:33:35.189Z,11.2
2018-09-19T20:34:17.556Z,10.3
2018-09-19T20:35:35.456Z,10
2018-09-19T20:36:35.586Z,8.2
2018-09-19T20:37:17.728Z,10.2
2018-09-19T20:39:35.778Z,10.8
2018-09-19T20:41:36.061Z,10.3
2018-09-19T20:42:36.176Z,10.8
2018-09-19T20:44:18.297Z,11.2
2018-09-19T20:46:18.408Z,13.2
2018-09-19T20:48:36.518Z,10.7
2018-09-19T20:49:18.714Z,11.3
2018-09-19T20:50:18.793Z,9.3
2018-09-19T20:51:18.712Z,10.4
2018-09-19T20:52:18.861Z,13.6
2018-09-19T20:53:37.120Z,10.3
2018-09-19T20:54:19.156Z,11.3
2018-09-19T20:55:37.015Z,11
2018-09-19T20:56:19.253Z,11
2018-09-19T20:57:37.137Z,11.9
2018-09-19T20:58:19.313Z,12.7
2018-09-19T20:59:19.461Z,10.3
2018-09-19T21:00:37.537Z,11.2
2018-09-19T21:01:37.413Z,10.8
2018-09-19T21:02:19.551Z,11.7
2018-09-19T21:03:19.659Z,11
2018-09-19T21:04:38.031Z,12.2
2018-09-19T21:05:20.074Z,10.5
2018-09-19T21:06:37.893Z,10.5
2018-09-19T21:08:38.255Z,11.6
2018-09-19T21:09:56.367Z,13.1
2018-09-19T21:10:56.160Z,11.4
2018-09-19T21:11:20.428Z,10.2
2018-09-19T21:12:38.402Z,12.7
2018-09-19T21:13:38.550Z,10.8
2018-09-19T21:14:20.748Z,10.2
2018-09-19T21:15:20.914Z,11.7
2018-09-19T21:16:38.891Z,15.8
2018-09-19T21:17:39.076Z,12
2018-09-19T21:18:21.061Z,10.3
2018-09-19T21:19:21.155Z,11.9
2018-09-19T21:20:39.254Z,11.6
2018-09-19T21:21:39.649Z,11.2
2018-09-19T21:22:21.652Z,11
2018-09-19T21:23:21.770Z,12.1
2018-09-19T21:24:21.629Z,11.9
2018-09-19T21:25:21.680Z,10.5
2018-09-19T21:26:21.597Z,11.2
2018-09-19T21:27:39.631Z,11
2018-09-19T21:28:22.137Z,12.3
2018-09-19T21:29:40.257Z,12.1
2018-09-19T21:30:22.195Z,10.1
2018-09-19T21:31:22.264Z,9
2018-09-19T21:32:22.297Z,10
2018-09-19T21:33:22.562Z,9.6
2018-09-19T21:35:22.323Z,12
2018-09-19T21:36:40.217Z,10.8
2018-09-19T21:37:22.532Z,10.7
2018-09-19T21:40:21.035Z,10.3
2018-09-19T21:40:55.115Z,11
2018-09-19T21:41:37.244Z,9.5
2018-09-19T21:42:37.293Z,10
2018-09-19T21:43:37.492Z,9.7
2018-09-19T21:45:13.690Z,10.5
2018-09-19T21:45:37.626Z,10.6
2018-09-19T21:46:56.395Z,10.2
2018-09-19T21:47:37.723Z,9.8
2018-09-19T21:48:37.935Z,9.8
2018-09-19T21:49:37.831Z,12.9
2018-09-19T21:50:37.830Z,10.5
2018-09-19T21:51:37.948Z,11.9
2018-09-19T21:52:38.180Z,11.3
2018-09-19T21:53:38.115Z,11.8
2018-09-19T22:08:51.469Z,12.9
2018-09-19T22:09:07.595Z,11.6
2018-09-19T22:11:07.711Z,9.8
2018-09-19T22:12:07.710Z,12
2018-09-19T22:13:07.787Z,10.4
2018-09-19T22:14:25.724Z,9.6
2018-09-19T22:15:08.083Z,9
2018-09-19T22:16:08.027Z,11.4
2018-09-19T22:17:08.087Z,10.1
2018-09-19T22:18:08.168Z,13
2018-09-19T22:19:08.312Z,10.2
2018-09-19T22:20:08.296Z,10.2
2018-09-19T22:21:08.431Z,10
2018-09-19T22:22:08.559Z,10.1
2018-09-19T22:23:08.749Z,9.6
2018-09-19T22:24:08.681Z,9.8
2018-09-19T22:25:08.725Z,9.9
2018-09-19T22:26:09.706Z,10.3
2018-09-19T22:27:08.943Z,9.3
2018-09-19T22:28:10.005Z,11.5
2018-09-19T22:29:26.943Z,9.3
2018-09-19T22:30:09.204Z,9
2018-09-19T22:31:09.324Z,10.3
2018-09-19T22:32:27.389Z,9.8
2018-09-19T22:33:09.337Z,11.8
2018-09-19T22:34:09.438Z,9.9
2018-09-19T22:35:27.464Z,9.5
2018-09-19T22:36:09.521Z,9.3
2018-09-19T22:37:09.574Z,10
2018-09-19T22:38:09.633Z,9.8
2018-09-19T22:40:09.959Z,9.6
2018-09-19T22:41:09.863Z,11
2018-09-19T22:42:09.959Z,14.9
2018-09-19T22:43:10.107Z,13.4
2018-09-19T22:44:10.004Z,10.9
2018-09-19T22:45:10.171Z,9.8
2018-09-19T22:46:28.268Z,12.8
2018-09-19T22:47:10.346Z,11.8
2018-09-19T22:48:10.366Z,10.4
2018-09-19T22:49:10.365Z,9.7
2018-09-19T22:50:10.462Z,9.9
2018-09-19T22:51:10.530Z,9.8
2018-09-19T22:52:10.486Z,10.3
2018-09-19T22:53:10.592Z,9.2
2018-09-19T22:54:10.693Z,9.6
2018-09-19T22:55:10.906Z,9.2
2018-09-19T22:56:10.771Z,11.1
2018-09-19T22:57:10.929Z,10.1
2018-09-19T22:58:28.853Z,9.1
2018-09-19T22:59:11.062Z,9.3
2018-09-19T23:00:11.048Z,9.5
2018-09-19T23:01:11.062Z,9.6
2018-09-19T23:02:11.126Z,10.5
2018-09-19T23:03:11.121Z,9.6
2018-09-19T23:04:11.251Z,9.2
2018-09-19T23:05:11.324Z,9.5
2018-09-19T23:06:11.184Z,10.4
2018-09-19T23:07:11.287Z,11.9
2018-09-19T23:08:12.289Z,9.7
2018-09-19T23:09:11.518Z,10
2018-09-19T23:10:29.322Z,12.1
2018-09-19T23:11:30.505Z,9.6
2018-09-19T23:12:29.630Z,11.8
2018-09-19T23:13:11.866Z,10.1
2018-09-19T23:14:11.842Z,9.6
2018-09-19T23:15:11.927Z,10.3
2018-09-19T23:16:29.961Z,10.7
2018-09-19T23:17:12.257Z,11.3
2018-09-19T23:18:12.148Z,9.5
2018-09-19T23:19:12.180Z,10.9
2018-09-19T23:20:30.156Z,10.4
2018-09-19T23:21:30.443Z,12.5
2018-09-19T23:22:12.376Z,9.9
2018-09-19T23:23:12.511Z,13.4
2018-09-19T23:24:12.668Z,10.7
2018-09-19T23:25:12.536Z,14.6
2018-09-19T23:26:12.562Z,13.8
2018-09-19T23:27:30.561Z,13.6
2018-09-19T23:28:12.679Z,10.4
2018-09-19T23:29:12.725Z,12.6
2018-09-19T23:30:12.767Z,14.1
2018-09-19T23:31:12.867Z,11.8
2018-09-19T23:32:14.058Z,12.1
2018-09-19T23:33:30.996Z,14.8
2018-09-19T23:34:13.104Z,10.2
2018-09-19T23:35:13.317Z,11.7
2018-09-19T23:36:14.297Z,10.1
2018-09-19T23:37:13.439Z,11
2018-09-19T23:39:13.690Z,9
2018-09-19T23:40:13.696Z,9.7
2018-09-19T23:42:14.630Z,8.9
2018-09-19T23:43:13.824Z,10.4
2018-09-19T23:44:13.868Z,9.8
2018-09-19T23:45:13.820Z,9.9
2018-09-19T23:46:14.012Z,11
2018-09-19T23:47:14.263Z,8.2
2018-09-19T23:48:14.293Z,12
2018-09-19T23:49:14.348Z,9.4
2018-09-19T23:50:14.443Z,8.2
2018-09-19T23:51:14.516Z,8.7
2018-09-19T23:52:14.607Z,9.2
2018-09-19T23:53:14.524Z,10.3
2018-09-19T23:54:14.744Z,8.2
2018-09-19T23:55:14.848Z,9.7
2018-09-19T23:56:32.788Z,9.5
2018-09-19T23:57:14.937Z,8.9
2018-09-19T23:58:33.015Z,10.3
2018-09-19T23:59:15.099Z,9.1
